Time;durP1;ratioP1;P1;durP2;ratioP2;P2;SDS_P1;SDS_P2;PMS_P1;PMS_P2;Temp;Humidity;BMP_temperature;BMP_pressure;BME280_temperature;BME280_humidity;BME280_pressure;Samples;Min_cycle;Max_cycle;Signal;HPM_P1;HPM_P2
2023/08/06 00:00:39;;;;;;;11.80;9.10;;;;;;;34.17;89.08;100297.76;109003;1253;58388;-89
2023/08/06 00:03:27;;;;;;;12.60;9.30;;;;;;;34.23;88.62;100299.13;109183;1252;66136;-89
2023/08/06 00:06:15;;;;;;;14.30;9.30;;;;;;;34.17;89.36;100300.45;109170;1253;60932;-89
2023/08/06 00:09:03;;;;;;;12.00;9.20;;;;;;;34.17;89.80;100298.98;109215;1254;62484;-91
2023/08/06 00:11:51;;;;;;;11.60;9.70;;;;;;;34.12;90.69;100297.41;109129;1253;58303;-91
2023/08/06 00:14:39;;;;;;;13.10;9.30;;;;;;;34.15;90.30;100293.67;109112;1253;58296;-92
2023/08/06 00:17:27;;;;;;;16.50;9.90;;;;;;;34.07;91.08;100289.91;109004;1253;65117;-91
2023/08/06 00:20:15;;;;;;;13.70;9.70;;;;;;;34.03;91.35;100287.24;109194;1254;61134;-88
2023/08/06 00:23:03;;;;;;;13.70;9.30;;;;;;;34.07;91.37;100289.60;109106;1253;62786;-89
2023/08/06 00:25:51;;;;;;;13.20;9.60;;;;;;;34.12;91.39;100287.05;109185;1253;59078;-89
2023/08/06 00:28:39;;;;;;;13.80;9.70;;;;;;;34.11;91.52;100281.30;109177;1253;58758;-91
2023/08/06 00:31:27;;;;;;;13.90;9.50;;;;;;;34.22;90.83;100278.17;108942;1254;65247;-91
2023/08/06 00:34:15;;;;;;;11.60;9.70;;;;;;;34.28;90.28;100278.02;109069;1254;60101;-90
2023/08/06 00:37:03;;;;;;;12.40;9.40;;;;;;;34.31;89.66;100275.36;109172;1253;64075;-90
2023/08/06 00:39:50;;;;;;;16.90;10.10;;;;;;;34.34;89.70;100274.54;109086;1254;58552;-89
2023/08/06 00:42:38;;;;;;;13.10;8.80;;;;;;;34.37;89.80;100265.96;109197;1254;58319;-91
2023/08/06 00:45:26;;;;;;;13.10;9.00;;;;;;;34.30;90.31;100261.76;109036;1253;64018;-91
2023/08/06 00:48:14;;;;;;;14.40;9.10;;;;;;;34.10;92.06;100261.41;108943;1253;61506;-92
2023/08/06 00:51:02;;;;;;;13.50;9.50;;;;;;;33.94;93.89;100260.52;109240;1253;64007;-91
2023/08/06 00:53:50;;;;;;;14.80;9.40;;;;;;;33.84;94.95;100255.83;109000;1254;58653;-88
2023/08/06 00:56:38;;;;;;;14.60;9.10;;;;;;;33.79;95.49;100252.56;109030;1253;58118;-91
2023/08/06 00:59:26;;;;;;;11.80;8.90;;;;;;;33.83;95.49;100254.65;109110;1254;65187;-91
2023/08/06 01:02:14;;;;;;;13.00;10.10;;;;;;;33.91;94.79;100253.94;109180;1254;61065;-90
2023/08/06 01:05:04;;;;;;;15.30;9.50;;;;;;;33.82;95.05;100253.45;108852;1253;65816;-91
2023/08/06 01:08:01;;;;;;;12.90;10.00;;;;;;;33.79;95.24;100251.50;108926;1254;58992;-90
2023/08/06 01:11:21;;;;;;;10.10;8.70;;;;;;;33.76;95.20;100244.95;109060;1254;59122;-91
2023/08/06 01:14:23;;;;;;;13.40;9.60;;;;;;;33.74;95.02;100236.98;109175;1253;66038;-91
2023/08/06 01:17:10;;;;;;;13.00;9.60;;;;;;;33.64;95.44;100232.70;109037;1253;59056;-88
2023/08/06 01:19:58;;;;;;;13.90;9.40;;;;;;;33.53;96.47;100231.58;109015;1253;64102;-92
2023/08/06 01:22:46;;;;;;;11.50;9.30;;;;;;;33.54;96.35;100230.91;109030;1254;61805;-91
2023/08/06 01:25:39;;;;;;;11.10;8.60;;;;;;;33.61;95.74;100226.98;109175;1253;59272;-92
2023/08/06 01:29:01;;;;;;;14.90;9.10;;;;;;;33.66;94.75;100226.98;109028;1254;65160;-89
2023/08/06 01:31:48;;;;;;;12.50;8.50;;;;;;;33.67;94.15;100226.97;108933;1253;59964;-89
2023/08/06 01:34:39;;;;;;;12.50;9.20;;;;;;;33.80;92.83;100225.81;108942;1253;64151;-92
2023/08/06 01:37:27;;;;;;;11.40;8.70;;;;;;;33.95;91.70;100223.96;109016;1253;58466;-89
2023/08/06 01:40:15;;;;;;;12.40;8.90;;;;;;;34.04;90.82;100224.88;109086;1253;58945;-91
2023/08/06 01:43:03;;;;;;;12.50;9.30;;;;;;;33.97;91.08;100225.54;108923;1254;65440;-92
2023/08/06 01:45:51;;;;;;;14.60;9.60;;;;;;;33.85;91.61;100225.21;108985;1253;61178;-91
2023/08/06 01:48:39;;;;;;;12.10;9.00;;;;;;;33.67;93.19;100220.41;109098;1253;65300;-91
2023/08/06 01:51:26;;;;;;;14.70;9.10;;;;;;;33.51;94.60;100223.23;108998;1254;59085;-88
2023/08/06 01:54:14;;;;;;;15.00;9.90;;;;;;;33.50;95.16;100223.88;109116;1252;59403;-89
2023/08/06 01:57:03;;;;;;;14.10;9.20;;;;;;;33.42;95.82;100224.73;109026;1256;66338;-91
2023/08/06 01:59:50;;;;;;;11.90;8.20;;;;;;;33.42;95.59;100226.91;108981;1254;58916;-88
2023/08/06 02:02:40;;;;;;;16.50;8.50;;;;;;;33.37;95.41;100228.23;109197;1253;64017;-91
2023/08/06 02:05:28;;;;;;;14.50;8.60;;;;;;;33.48;94.28;100226.68;109144;1252;58295;-89
2023/08/06 02:08:16;;;;;;;14.00;9.00;;;;;;;33.51;93.46;100225.91;109158;1256;58333;-91
2023/08/06 02:11:04;;;;;;;11.10;8.60;;;;;;;33.51;92.71;100224.52;109116;1255;66135;-88
2023/08/06 02:13:52;;;;;;;13.00;9.00;;;;;;;33.51;92.44;100218.04;108902;1254;59766;-91
2023/08/06 02:16:40;;;;;;;15.20;9.50;;;;;;;33.52;91.88;100215.02;109132;1253;65095;-87
2023/08/06 02:19:28;;;;;;;18.00;8.80;;;;;;;33.48;91.74;100210.33;109098;1253;58879;-88
2023/08/06 02:22:15;;;;;;;10.80;8.30;;;;;;;33.40;91.82;100207.39;109051;1253;58764;-89
2023/08/06 02:25:03;;;;;;;13.00;9.20;;;;;;;33.40;91.69;100208.11;109154;1253;74910;-89
2023/08/06 02:27:51;;;;;;;14.50;10.00;;;;;;;33.40;91.76;100204.39;109214;1253;59853;-88
2023/08/06 02:30:39;;;;;;;14.90;9.20;;;;;;;33.48;90.95;100205.10;109088;1253;65836;-91
2023/08/06 02:33:28;;;;;;;10.20;8.20;;;;;;;33.48;90.72;100207.52;108898;1256;58920;-90
2023/08/06 02:36:16;;;;;;;13.90;9.40;;;;;;;33.52;90.23;100203.77;109215;1253;58958;-90
2023/08/06 02:39:04;;;;;;;13.80;9.50;;;;;;;33.42;91.24;100202.48;109084;1254;66056;-92
2023/08/06 02:41:52;;;;;;;12.30;9.50;;;;;;;33.33;92.28;100204.16;109058;1254;58731;-90
2023/08/06 02:44:40;;;;;;;12.90;9.30;;;;;;;33.43;91.40;100203.83;109070;1253;65239;-90
2023/08/06 02:47:28;;;;;;;12.40;9.60;;;;;;;33.49;90.78;100211.62;109114;1253;59996;-88
2023/08/06 02:50:16;;;;;;;14.70;9.10;;;;;;;33.55;90.31;100211.55;109003;1253;58626;-92
2023/08/06 02:53:04;;;;;;;11.50;8.70;;;;;;;33.66;89.72;100215.49;108936;1253;66341;-89
2023/08/06 02:55:52;;;;;;;13.00;9.50;;;;;;;33.77;88.77;100217.30;109171;1253;59894;-91
2023/08/06 02:58:43;;;;;;;15.70;9.20;;;;;;;33.81;88.36;100214.78;108941;1253;64092;-91
2023/08/06 03:01:41;;;;;;;11.80;9.40;;;;;;;33.84;88.18;100214.77;109086;1253;58423;-92
2023/08/06 03:04:36;;;;;;;12.40;9.00;;;;;;;33.85;87.75;100211.86;109217;1253;58653;-92
2023/08/06 03:07:24;;;;;;;14.60;9.70;;;;;;;33.96;86.64;100211.64;108953;1254;65169;-92
2023/08/06 03:10:16;;;;;;;13.00;9.70;;;;;;;34.06;85.80;100206.76;109087;1254;61026;-89
2023/08/06 03:13:04;;;;;;;13.10;9.80;;;;;;;34.08;85.37;100202.66;109041;1253;63791;-92
2023/08/06 03:15:57;;;;;;;13.30;10.10;;;;;;;34.12;85.19;100196.23;109229;1252;58384;-92
2023/08/06 03:18:45;;;;;;;14.50;9.80;;;;;;;34.25;84.45;100194.02;109256;1252;58350;-91
2023/08/06 03:21:33;;;;;;;11.70;9.10;;;;;;;34.29;84.37;100193.65;109015;1256;66278;-91
2023/08/06 03:24:20;;;;;;;13.50;9.70;;;;;;;34.32;84.28;100193.34;108897;1252;59846;-92
2023/08/06 03:27:08;;;;;;;13.60;9.60;;;;;;;34.44;83.12;100190.97;108953;1253;65164;-89
2023/08/06 03:29:57;;;;;;;13.90;9.60;;;;;;;34.55;82.35;100187.55;109217;1253;58819;-91
2023/08/06 03:32:47;;;;;;;12.70;9.80;;;;;;;34.76;80.87;100183.13;108976;1253;58562;-88
2023/08/06 03:35:35;;;;;;;14.40;9.20;;;;;;;34.87;80.53;100182.45;109086;1252;66427;-90
2023/08/06 03:38:23;;;;;;;14.00;9.80;;;;;;;35.03;79.03;100182.02;109142;1253;59057;-90
2023/08/06 03:41:11;;;;;;;12.60;8.90;;;;;;;35.12;77.70;100176.50;109140;1253;65084;-91
2023/08/06 03:44:02;;;;;;;13.30;9.40;;;;;;;35.12;75.90;100172.38;109047;1252;59444;-91
2023/08/06 03:46:50;;;;;;;14.70;9.10;;;;;;;35.09;74.38;100169.84;109193;1252;58355;-91
2023/08/06 03:49:31;;;;;;;13.80;9.00;;;;;;;35.18;73.16;100168.88;108550;1259;65525;-89
2023/08/06 03:52:18;;;;;;;13.00;8.90;;;;;;;35.26;72.76;100171.09;108649;1259;60098;-90
2023/08/06 03:55:08;;;;;;;12.70;9.50;;;;;;;35.30;71.18;100169.20;108654;1260;65191;-91
2023/08/06 03:57:55;;;;;;;14.40;8.90;;;;;;;35.21;71.90;100167.94;108600;1260;58951;-90
2023/08/06 04:00:43;;;;;;;12.10;9.60;;;;;;;35.23;72.19;100168.20;108683;1259;58824;-91
2023/08/06 04:03:31;;;;;;;12.90;9.40;;;;;;;35.24;72.02;100166.70;108671;1260;65178;-92
2023/08/06 04:06:19;;;;;;;11.60;8.50;;;;;;;35.33;71.10;100163.65;108656;1259;61693;-90
2023/08/06 04:09:07;;;;;;;12.60;8.80;;;;;;;35.40;70.94;100159.33;108612;1260;63744;-90
2023/08/06 04:11:55;;;;;;;11.80;8.70;;;;;;;35.44;70.98;100157.20;108703;1260;58384;-89
2023/08/06 04:15:21;;;;;;;12.50;8.60;;;;;;;35.56;70.42;100153.13;108647;1259;58488;-88
2023/08/06 04:18:47;;;;;;;13.60;9.70;;;;;;;35.74;69.48;100149.02;108700;1260;65986;-89
2023/08/06 04:22:17;;;;;;;11.00;8.90;;;;;;;35.73;68.47;100145.15;108662;1260;59358;-92
2023/08/06 04:25:46;;;;;;;10.70;9.20;;;;;;;35.72;67.68;100137.24;108792;1259;64997;-92
2023/08/06 04:29:20;;;;;;;12.60;9.10;;;;;;;35.96;65.72;100128.27;108609;1261;58361;-89
2023/08/06 04:32:53;;;;;;;12.50;9.30;;;;;;;36.23;64.47;100120.86;108649;1260;58546;-91
2023/08/06 04:36:27;;;;;;;13.00;9.20;;;;;;;36.36;62.88;100116.38;108557;1260;66113;-92
2023/08/06 04:40:01;;;;;;;12.40;9.30;;;;;;;36.41;61.40;100115.31;108567;1260;60056;-89
2023/08/06 04:43:28;;;;;;;18.70;9.60;;;;;;;36.37;60.49;100119.66;108596;1260;64993;-91
2023/08/06 04:46:55;;;;;;;14.00;9.50;;;;;;;36.45;60.75;100119.92;108647;1260;58787;-91
2023/08/06 04:50:20;;;;;;;12.40;9.60;;;;;;;36.22;61.81;100114.14;108722;1257;58901;-92
2023/08/06 04:53:45;;;;;;;14.40;9.90;;;;;;;36.13;60.63;100107.81;108433;1260;66230;-90
2023/08/06 04:57:13;;;;;;;14.10;9.90;;;;;;;36.13;60.39;100103.45;108716;1257;61682;-91
2023/08/06 05:00:45;;;;;;;12.80;9.70;;;;;;;36.26;61.06;100101.33;108825;1257;63922;-91
2023/08/06 05:04:17;;;;;;;11.50;9.40;;;;;;;36.51;60.53;100097.25;108704;1259;58947;-91
2023/08/06 05:07:30;;;;;;;;;;;;;;;36.65;59.48;100097.20;108822;1259;58623;-91
2023/08/06 05:11:02;;;;;;;12.10;8.60;;;;;;;36.82;57.74;100098.55;108772;1259;65412;-90
2023/08/06 05:14:36;;;;;;;12.80;8.50;;;;;;;36.85;57.34;100097.56;108499;1257;60204;-91
2023/08/06 05:18:08;;;;;;;14.30;9.60;;;;;;;36.93;57.83;100095.84;108786;1259;63709;-89
2023/08/06 05:21:21;;;;;;;;;;;;;;;37.00;57.63;100092.61;108733;1259;58373;-90
2023/08/06 05:24:34;;;;;;;;;;;;;;;37.11;58.16;100091.61;108649;1257;59666;-90
2023/08/06 05:27:40;;;;;;;;;;;;;;;37.21;58.40;100086.86;108666;1257;66260;-89
2023/08/06 05:31:06;;;;;;;12.10;9.30;;;;;;;37.29;56.82;100080.41;108818;1257;61271;-89
2023/08/06 05:34:32;;;;;;;18.30;9.60;;;;;;;37.39;57.69;100076.08;108758;1257;64951;-91
2023/08/06 05:38:06;;;;;;;13.30;9.30;;;;;;;37.43;59.34;100071.99;108631;1257;58764;-91
2023/08/06 05:41:31;;;;;;;12.00;9.20;;;;;;;37.64;59.07;100068.88;108524;1258;59117;-91
2023/08/06 05:44:58;;;;;;;11.60;8.80;;;;;;;37.68;59.04;100070.35;108658;1257;63927;-91
2023/08/06 05:48:30;;;;;;;13.40;8.70;;;;;;;37.86;60.09;100068.30;108705;1259;59906;-90
2023/08/06 05:52:06;;;;;;;12.60;8.40;;;;;;;38.09;56.64;100069.94;108723;1257;64948;-90
2023/08/06 05:55:40;;;;;;;14.50;9.00;;;;;;;38.12;54.71;100069.80;108675;1259;58293;-93
2023/08/06 05:59:14;;;;;;;9.60;8.20;;;;;;;37.94;53.95;100070.98;108812;1258;58443;-90
2023/08/06 06:02:47;;;;;;;9.90;8.00;;;;;;;37.87;51.09;100070.86;108725;1258;67321;-89
2023/08/06 06:06:12;;;;;;;12.70;8.60;;;;;;;38.13;50.88;100070.58;108741;1257;60176;-90
2023/08/06 06:09:41;;;;;;;13.00;8.80;;;;;;;38.28;49.80;100070.27;108762;1257;65062;-91
2023/08/06 06:13:15;;;;;;;10.20;8.20;;;;;;;38.37;48.84;100060.98;108657;1257;58511;-91
2023/08/06 06:16:46;;;;;;;9.30;8.30;;;;;;;38.34;49.89;100060.15;108727;1257;58532;-91
2023/08/06 06:20:23;;;;;;;10.50;8.30;;;;;;;38.21;49.86;100059.71;108651;1259;65095;-91
2023/08/06 06:23:58;;;;;;;12.80;8.80;;;;;;;38.40;50.00;100054.48;108754;1258;61077;-93
2023/08/06 06:27:54;;;;;;;10.00;8.10;;;;;;;38.48;50.91;100052.00;108637;1259;63887;-90
2023/08/06 06:31:19;;;;;;;13.70;9.20;;;;;;;38.69;50.12;100047.86;108732;1259;58293;-90
2023/08/06 06:34:44;;;;;;;23.70;9.10;;;;;;;38.71;48.85;100043.85;108644;1258;58066;-91
2023/08/06 06:38:10;;;;;;;12.10;8.00;;;;;;;38.84;49.76;100041.89;108730;1258;65349;-92
2023/08/06 06:41:35;;;;;;;11.50;8.40;;;;;;;38.95;47.86;100038.41;108635;1257;61516;-91
2023/08/06 06:44:29;;;;;;;11.20;8.90;;;;;;;38.88;47.21;100040.62;108695;1259;65137;-92
2023/08/06 06:47:19;;;;;;;12.30;8.80;;;;;;;38.94;46.67;100039.52;108696;1258;58979;-92
2023/08/06 06:50:08;;;;;;;13.40;8.60;;;;;;;39.00;44.72;100038.25;108614;1259;58655;-92
2023/08/06 06:52:56;;;;;;;13.20;8.80;;;;;;;39.10;42.83;100042.16;108586;1258;66239;-92
2023/08/06 06:56:35;;;;;;;12.50;9.00;;;;;;;39.21;42.76;100036.04;108760;1257;60908;-91
2023/08/06 06:59:30;;;;;;;11.60;8.80;;;;;;;39.39;42.15;100035.53;108663;1257;64097;-88
2023/08/06 07:02:18;;;;;;;19.50;9.50;;;;;;;39.42;41.24;100036.90;108718;1257;58704;-88
2023/08/06 07:05:07;;;;;;;13.40;8.70;;;;;;;39.46;41.15;100037.45;108675;1257;58455;-88
2023/08/06 07:07:55;;;;;;;12.20;9.60;;;;;;;39.48;42.04;100037.96;108638;1258;66307;-88
2023/08/06 07:10:43;;;;;;;10.70;8.90;;;;;;;39.47;41.30;100032.73;108405;1259;58781;-90
2023/08/06 07:13:31;;;;;;;14.60;9.30;;;;;;;39.47;41.35;100029.67;108596;1257;63778;-87
2023/08/06 07:16:19;;;;;;;13.20;9.00;;;;;;;39.66;42.39;100028.21;108721;1257;59162;-90
2023/08/06 07:19:07;;;;;;;11.50;9.40;;;;;;;39.87;42.18;100029.03;108760;1258;58556;-89
2023/08/06 07:21:55;;;;;;;11.70;8.90;;;;;;;39.76;41.46;100025.04;108713;1258;66666;-91
2023/08/06 07:24:44;;;;;;;10.80;8.60;;;;;;;39.57;41.90;100019.99;108737;1259;60723;-91
2023/08/06 07:27:36;;;;;;;13.00;9.50;;;;;;;39.48;41.68;100017.84;108700;1259;65106;-90
2023/08/06 07:30:24;;;;;;;11.70;9.40;;;;;;;39.50;41.40;100014.77;108763;1258;58852;-90
2023/08/06 07:33:12;;;;;;;12.40;9.40;;;;;;;39.46;41.35;100011.68;108780;1258;58422;-90
2023/08/06 07:36:07;;;;;;;13.00;10.00;;;;;;;39.45;41.72;100012.44;108780;1258;66179;-91
2023/08/06 07:38:58;;;;;;;11.90;10.00;;;;;;;39.51;41.58;100009.98;108661;1259;58637;-90
2023/08/06 07:41:46;;;;;;;13.20;9.50;;;;;;;39.49;41.78;100006.64;108648;1259;63765;-88
2023/08/06 07:44:34;;;;;;;13.10;9.60;;;;;;;39.65;42.03;100003.44;108778;1258;58364;-89
2023/08/06 07:47:22;;;;;;;14.20;10.00;;;;;;;39.93;41.62;100009.64;108774;1258;59424;-90
2023/08/06 07:50:11;;;;;;;14.20;10.30;;;;;;;40.06;41.46;100008.35;108710;1259;66264;-90
2023/08/06 07:52:58;;;;;;;13.60;10.20;;;;;;;40.12;41.94;100004.75;108686;1259;59964;-88
2023/08/06 07:55:53;;;;;;;13.20;9.60;;;;;;;40.15;42.39;99999.33;108727;1259;65104;-89
2023/08/06 07:58:41;;;;;;;12.40;9.50;;;;;;;40.31;42.00;99994.35;108713;1260;58251;-90
2023/08/06 08:01:29;;;;;;;12.70;10.00;;;;;;;40.30;40.96;99994.63;108786;1258;58406;-89
2023/08/06 08:04:17;;;;;;;15.20;10.60;;;;;;;40.27;41.20;99985.19;108787;1258;66447;-88
2023/08/06 08:07:05;;;;;;;12.80;9.50;;;;;;;40.38;41.51;99982.17;108689;1257;59599;-89
2023/08/06 08:09:53;;;;;;;12.20;10.40;;;;;;;40.51;40.86;99968.84;108646;1258;65197;-88
2023/08/06 08:12:42;;;;;;;11.10;9.80;;;;;;;40.51;41.11;99968.62;108736;1257;58443;-89
2023/08/06 08:15:30;;;;;;;10.70;9.60;;;;;;;40.51;41.60;99963.63;108700;1258;58484;-88
2023/08/06 08:18:18;;;;;;;12.80;9.50;;;;;;;40.59;40.87;99962.02;108777;1258;65200;-89
2023/08/06 08:21:06;;;;;;;17.70;9.80;;;;;;;40.62;39.72;99960.81;108679;1258;61402;-90
2023/08/06 08:23:53;;;;;;;13.00;9.70;;;;;;;40.62;39.43;99954.20;108675;1259;62874;-91
2023/08/06 08:26:41;;;;;;;10.60;9.10;;;;;;;40.57;39.42;99950.64;108686;1260;58549;-90
2023/08/06 08:29:29;;;;;;;11.60;9.30;;;;;;;40.53;39.88;99949.81;108719;1257;58352;-90
2023/08/06 08:32:17;;;;;;;13.60;9.50;;;;;;;40.53;39.78;99945.91;108683;1258;65034;-89
2023/08/06 08:35:05;;;;;;;12.50;9.20;;;;;;;40.52;40.39;99942.77;108702;1257;60948;-90
2023/08/06 08:37:54;;;;;;;11.30;8.30;;;;;;;40.53;39.69;99943.41;108686;1260;64049;-92
2023/08/06 08:40:47;;;;;;;17.10;9.70;;;;;;;40.65;38.42;99935.58;108697;1259;58727;-90
2023/08/06 08:43:35;;;;;;;12.60;8.70;;;;;;;40.74;38.53;99935.60;108788;1258;58238;-88
2023/08/06 08:46:23;;;;;;;11.80;8.40;;;;;;;40.87;38.05;99932.42;108727;1258;65244;-88
2023/08/06 08:49:11;;;;;;;11.60;8.60;;;;;;;40.96;37.31;99928.19;108769;1258;61105;-88
2023/08/06 08:51:59;;;;;;;12.30;8.60;;;;;;;40.97;37.14;99920.14;108743;1258;65639;-89
2023/08/06 08:54:51;;;;;;;12.60;8.80;;;;;;;41.00;37.50;99915.05;108767;1258;58231;-89
2023/08/06 08:57:39;;;;;;;9.50;8.30;;;;;;;41.15;37.17;99909.45;108730;1258;58608;-90
2023/08/06 09:00:29;;;;;;;12.50;8.70;;;;;;;41.29;36.39;99904.98;108755;1258;66295;-89
2023/08/06 09:03:17;;;;;;;11.70;8.50;;;;;;;41.34;35.93;99902.99;108723;1259;60305;-90
2023/08/06 09:06:05;;;;;;;13.60;9.10;;;;;;;41.43;35.44;99901.36;108751;1258;65097;-88
2023/08/06 09:09:09;;;;;;;13.00;8.50;;;;;;;41.57;35.80;99894.55;108784;1259;58271;-90
2023/08/06 09:12:02;;;;;;;;;;;;;;;41.68;36.27;99889.48;108779;1258;58382;-88
2023/08/06 09:14:52;;;;;;;11.00;8.80;;;;;;;41.86;36.71;99879.40;108780;1258;65392;-89
2023/08/06 09:17:40;;;;;;;13.30;9.10;;;;;;;41.86;36.90;99874.50;108769;1258;60062;-91
2023/08/06 09:20:28;;;;;;;10.10;8.80;;;;;;;41.84;36.72;99867.49;108782;1258;65648;-89
2023/08/06 09:23:16;;;;;;;12.00;8.90;;;;;;;41.97;36.32;99864.58;108726;1258;58728;-92
2023/08/06 09:26:04;;;;;;;12.40;8.80;;;;;;;41.87;35.99;99859.96;108799;1257;58733;-89
2023/08/06 09:28:52;;;;;;;12.30;9.30;;;;;;;41.93;36.62;99849.58;108624;1258;65240;-91
2023/08/06 09:31:53;;;;;;;11.90;8.60;;;;;;;42.11;37.18;99844.69;108725;1257;60419;-90
2023/08/06 09:34:45;;;;;;;11.20;8.90;;;;;;;42.14;36.98;99838.02;108771;1257;63976;-91
2023/08/06 09:37:36;;;;;;;15.70;9.00;;;;;;;42.24;37.73;99837.51;108699;1257;58729;-91
2023/08/06 09:40:29;;;;;;;13.30;9.00;;;;;;;42.57;37.76;99833.79;108768;1257;58183;-91
2023/08/06 09:43:19;;;;;;;12.00;8.90;;;;;;;42.58;36.94;99824.96;108721;1258;66072;-91
2023/08/06 09:46:16;;;;;;;10.90;8.70;;;;;;;42.69;36.55;99818.43;108693;1258;59970;-90
2023/08/06 09:49:07;;;;;;;10.70;8.80;;;;;;;42.72;37.28;99817.07;108729;1259;64032;-90
2023/08/06 09:51:58;;;;;;;11.80;8.60;;;;;;;42.89;37.89;99814.41;108787;1258;58472;-91
2023/08/06 09:54:46;;;;;;;9.50;8.00;;;;;;;43.01;37.25;99809.94;108644;1258;58848;-90
2023/08/06 09:57:33;;;;;;;10.70;8.90;;;;;;;43.07;35.80;99801.63;108723;1257;65418;-90
2023/08/06 10:00:22;;;;;;;10.20;8.60;;;;;;;43.15;36.45;99798.65;108708;1259;60210;-91
2023/08/06 10:03:13;;;;;;;10.50;8.90;;;;;;;43.24;36.29;99798.42;108632;1259;64100;-90
2023/08/06 10:06:05;;;;;;;12.30;8.80;;;;;;;43.45;35.72;99792.70;108689;1259;59114;-90
2023/08/06 10:08:53;;;;;;;12.30;8.50;;;;;;;43.45;35.51;99794.06;108624;1257;58827;-90
2023/08/06 10:11:42;;;;;;;12.90;8.30;;;;;;;43.47;35.89;99789.10;108780;1258;65189;-90
2023/08/06 10:14:34;;;;;;;12.70;8.00;;;;;;;43.45;36.13;99784.91;108699;1259;61079;-89
2023/08/06 10:17:28;;;;;;;12.60;8.80;;;;;;;43.55;35.75;99781.25;108712;1257;64885;-89
2023/08/06 10:20:35;;;;;;;10.20;7.90;;;;;;;43.57;35.50;99776.76;108709;1258;58765;-89
2023/08/06 10:23:33;;;;;;;12.30;7.90;;;;;;;43.30;36.22;99772.86;108699;1257;58741;-91
2023/08/06 10:26:28;;;;;;;10.70;8.00;;;;;;;43.22;36.89;99766.55;108674;1257;65240;-90
2023/08/06 10:29:40;;;;;;;11.20;7.50;;;;;;;43.27;37.28;99761.52;108603;1259;60578;-91
2023/08/06 10:32:48;;;;;;;13.80;7.60;;;;;;;43.19;36.88;99760.48;108574;1258;63189;-91
2023/08/06 10:35:50;;;;;;;11.60;7.70;;;;;;;43.29;36.70;99754.58;108739;1258;58403;-91
2023/08/06 10:38:47;;;;;;;;;;;;;;;43.24;36.12;99753.63;108781;1259;58901;-89
2023/08/06 10:41:35;;;;;;;11.00;6.70;;;;;;;43.08;36.78;99747.05;108804;1258;66213;-90
2023/08/06 10:44:30;;;;;;;11.80;7.40;;;;;;;43.03;36.67;99744.69;108747;1258;59986;-89
2023/08/06 10:47:30;;;;;;;10.70;7.70;;;;;;;43.11;36.49;99740.91;108745;1258;64786;-88
2023/08/06 10:50:18;;;;;;;11.20;7.60;;;;;;;43.23;36.61;99743.64;108769;1258;58470;-89
2023/08/06 10:53:06;;;;;;;8.80;7.00;;;;;;;43.18;36.02;99739.04;108756;1258;58255;-91
2023/08/06 10:55:54;;;;;;;11.70;7.30;;;;;;;43.12;36.08;99736.80;108770;1257;66113;-91
2023/08/06 10:58:42;;;;;;;12.70;6.60;;;;;;;43.23;36.57;99732.88;108688;1259;60546;-91
2023/08/06 11:01:30;;;;;;;10.30;6.90;;;;;;;43.43;35.53;99726.89;108592;1258;63608;-91
2023/08/06 11:04:18;;;;;;;12.10;7.70;;;;;;;43.55;35.82;99722.69;108609;1259;58529;-92
2023/08/06 11:07:07;;;;;;;10.30;6.90;;;;;;;43.67;35.79;99714.58;108594;1259;58196;-90
2023/08/06 11:10:03;;;;;;;6.90;5.70;;;;;;;43.73;35.08;99708.07;108716;1258;66134;-90
2023/08/06 11:12:51;;;;;;;10.30;6.70;;;;;;;43.62;35.22;99703.34;108670;1259;61314;-90
2023/08/06 11:15:39;;;;;;;8.90;6.10;;;;;;;43.56;35.20;99703.77;108710;1259;65005;-90
2023/08/06 11:18:28;;;;;;;9.70;6.50;;;;;;;43.58;35.68;99691.05;108765;1258;59436;-91
2023/08/06 11:21:20;;;;;;;7.00;5.70;;;;;;;43.54;35.38;99687.71;108664;1259;58392;-90
2023/08/06 11:24:08;;;;;;;11.10;5.90;;;;;;;43.44;35.63;99683.04;108624;1258;64061;-89
2023/08/06 11:26:56;;;;;;;13.50;6.20;;;;;;;43.49;35.22;99679.52;108791;1259;60947;-90
2023/08/06 11:29:48;;;;;;;6.50;4.90;;;;;;;43.55;34.94;99673.80;108545;1258;65741;-89
2023/08/06 11:32:46;;;;;;;9.70;5.40;;;;;;;43.63;33.63;99674.02;108685;1259;58288;-89
2023/08/06 11:35:35;;;;;;;7.20;5.50;;;;;;;43.65;33.57;99673.10;108721;1259;58223;-90
2023/08/06 11:38:32;;;;;;;10.40;5.30;;;;;;;43.64;33.25;99672.29;108776;1258;64985;-91
2023/08/06 11:41:20;;;;;;;9.70;5.20;;;;;;;43.69;32.14;99670.23;108767;1257;61012;-89
2023/08/06 11:44:10;;;;;;;8.10;5.10;;;;;;;43.79;31.97;99663.63;108758;1259;64940;-89
2023/08/06 11:47:01;;;;;;;5.90;5.10;;;;;;;43.92;31.61;99657.25;108760;1258;58367;-90
2023/08/06 11:49:49;;;;;;;13.50;5.40;;;;;;;44.10;31.07;99655.55;108800;1259;58138;-90
2023/08/06 11:52:39;;;;;;;7.50;5.50;;;;;;;44.48;30.83;99652.90;108668;1259;66135;-91
2023/08/06 11:55:28;;;;;;;8.10;5.20;;;;;;;44.54;29.99;99649.63;108734;1258;60030;-90
2023/08/06 11:58:16;;;;;;;6.90;4.50;;;;;;;44.49;30.50;99640.09;108647;1258;64126;-89
2023/08/06 12:01:04;;;;;;;12.20;4.50;;;;;;;44.50;29.68;99641.33;108730;1259;58283;-89
2023/08/06 12:03:52;;;;;;;8.50;4.40;;;;;;;44.56;28.64;99638.34;108757;1259;58345;-89
2023/08/06 12:06:44;;;;;;;7.50;4.10;;;;;;;44.56;28.74;99634.89;108722;1258;66159;-91
2023/08/06 12:09:32;;;;;;;11.50;4.50;;;;;;;44.69;28.53;99630.20;108785;1259;61484;-90
2023/08/06 12:12:20;;;;;;;6.30;3.80;;;;;;;44.88;28.26;99625.23;108776;1258;64159;-92
2023/08/06 12:15:09;;;;;;;8.10;4.30;;;;;;;44.96;27.64;99626.96;108640;1259;60449;-91
2023/08/06 12:17:57;;;;;;;7.30;4.20;;;;;;;44.80;27.57;99619.48;108744;1258;58193;-90
2023/08/06 12:20:45;;;;;;;9.00;4.00;;;;;;;44.85;27.43;99617.52;108773;1259;66222;-90
2023/08/06 12:23:33;;;;;;;10.60;4.00;;;;;;;44.72;27.04;99621.24;108798;1258;61265;-90
2023/08/06 12:26:20;;;;;;;7.00;4.20;;;;;;;44.47;27.83;99619.77;108763;1258;64056;-91
2023/08/06 12:29:08;;;;;;;8.40;4.20;;;;;;;44.13;28.25;99616.36;108769;1258;58283;-92
2023/08/06 12:31:56;;;;;;;11.70;4.30;;;;;;;43.92;28.33;99610.52;108692;1259;59147;-89
2023/08/06 12:34:44;;;;;;;15.20;5.00;;;;;;;43.77;28.65;99608.78;108783;1258;64042;-90
2023/08/06 12:37:41;;;;;;;6.20;4.30;;;;;;;43.64;29.44;99611.56;108645;1258;61186;-89
2023/08/06 12:40:28;;;;;;;5.80;3.80;;;;;;;43.53;28.95;99608.77;108772;1259;64015;-90
2023/08/06 12:43:36;;;;;;;9.30;4.70;;;;;;;43.47;29.27;99604.65;108727;1258;58333;-89
2023/08/06 12:46:24;;;;;;;6.30;4.40;;;;;;;43.55;29.01;99598.09;108785;1258;58347;-88
2023/08/06 12:49:12;;;;;;;8.00;4.30;;;;;;;43.62;28.81;99596.61;108746;1258;65005;-89
2023/08/06 12:52:00;;;;;;;9.20;4.20;;;;;;;43.75;29.06;99586.88;108749;1259;59901;-88
2023/08/06 12:54:47;;;;;;;9.40;4.10;;;;;;;44.11;29.28;99590.17;108646;1259;62807;-89
2023/08/06 12:57:35;;;;;;;11.50;4.30;;;;;;;44.59;28.77;99592.75;108724;1258;58858;-90
2023/08/06 13:00:43;;;;;;;9.70;4.10;;;;;;;45.00;28.38;99586.40;108776;1258;58288;-91
2023/08/06 13:03:31;;;;;;;7.40;4.40;;;;;;;45.24;27.21;99579.17;108586;1259;65166;-89
2023/08/06 13:06:20;;;;;;;5.60;4.30;;;;;;;45.22;27.09;99569.86;108658;1259;60091;-92
2023/08/06 13:09:09;;;;;;;10.70;4.20;;;;;;;45.47;26.76;99567.31;108773;1258;65177;-89
2023/08/06 13:11:59;;;;;;;10.40;3.90;;;;;;;45.65;26.47;99560.52;108663;1259;58563;-89
2023/08/06 13:14:47;;;;;;;9.40;4.10;;;;;;;45.79;25.94;99560.39;108617;1259;58829;-90
2023/08/06 13:17:35;;;;;;;8.70;4.30;;;;;;;45.89;25.52;99562.02;108684;1259;63830;-91
2023/08/06 13:20:23;;;;;;;6.50;4.20;;;;;;;46.04;26.21;99553.25;108624;1258;60082;-90
2023/08/06 13:23:12;;;;;;;18.00;4.70;;;;;;;46.07;26.31;99552.10;108730;1259;65005;-89
2023/08/06 13:25:59;;;;;;;8.20;4.20;;;;;;;46.16;25.85;99552.02;108735;1259;58330;-89